Time;durP1;ratioP1;P1;durP2;ratioP2;P2;SDS_P1;SDS_P2;PMS_P1;PMS_P2;Temp;Humidity;BMP_temperature;BMP_pressure;BME280_temperature;BME280_humidity;BME280_pressure;Samples;Min_cycle;Max_cycle;Signal;HPM_P1;HPM_P2
2023/02/09 00:00:13;;;;;;;16.00;8.47;;;2.20;98.40;;;;;;4971714;28;20524;-70
2023/02/09 00:02:40;;;;;;;11.77;8.00;;;2.10;99.10;;;;;;4974194;28;20190;-70
2023/02/09 00:05:07;;;;;;;14.53;9.20;;;2.20;99.10;;;;;;4974453;28;20428;-70
2023/02/09 00:07:32;;;;;;;10.90;8.27;;;2.30;97.70;;;;;;4973901;28;20870;-70
2023/02/09 00:09:58;;;;;;;10.80;8.07;;;2.20;98.30;;;;;;4974217;28;20526;-70
2023/02/09 00:15:08;;;;;;;18.43;9.03;;;2.00;99.90;;;;;;4974169;28;20547;-70
2023/02/09 00:17:35;;;;;;;14.07;9.20;;;2.10;99.80;;;;;;4974216;28;20488;-70
2023/02/09 00:20:01;;;;;;;15.33;7.67;;;2.00;99.60;;;;;;4974109;28;20197;-70
2023/02/09 00:22:27;;;;;;;19.97;9.97;;;2.00;99.90;;;;;;4974022;28;20532;-70
2023/02/09 00:24:52;;;;;;;12.37;8.90;;;2.00;99.90;;;;;;4973972;28;20475;-70
2023/02/09 00:27:18;;;;;;;16.90;8.80;;;2.00;99.90;;;;;;4973134;28;20558;-69
2023/02/09 00:29:43;;;;;;;13.60;8.07;;;2.00;99.90;;;;;;4974053;28;20313;-71
2023/02/09 00:32:09;;;;;;;18.13;10.07;;;1.90;99.90;;;;;;4973426;28;20312;-70
2023/02/09 00:34:37;;;;;;;14.67;7.70;;;2.00;99.90;;;;;;4973911;28;20281;-70
2023/02/09 00:37:02;;;;;;;14.50;8.20;;;1.90;99.90;;;;;;4973882;28;20215;-70
2023/02/09 00:39:29;;;;;;;16.93;10.80;;;1.80;99.90;;;;;;4973746;28;20440;-71
2023/02/09 00:42:06;;;;;;;12.80;7.50;;;1.80;99.90;;;;;;4973884;28;20533;-70
2023/02/09 00:44:37;;;;;;;12.93;9.30;;;1.80;99.90;;;;;;4973743;28;20430;-71
2023/02/09 00:47:03;;;;;;;16.70;8.50;;;1.90;99.90;;;;;;4973689;28;20463;-70
2023/02/09 00:49:29;;;;;;;13.30;9.30;;;2.00;99.90;;;;;;4954982;28;20444;-71
2023/02/09 00:51:55;;;;;;;14.77;9.67;;;2.00;99.90;;;;;;4973805;28;20443;-72
2023/02/09 00:54:21;;;;;;;13.57;9.20;;;2.00;99.90;;;;;;4973587;28;20844;-71
2023/02/09 00:56:46;;;;;;;15.20;10.40;;;2.00;99.90;;;;;;4973609;28;20223;-72
2023/02/09 00:59:12;;;;;;;14.43;8.93;;;2.00;99.90;;;;;;4973688;28;20197;-71
2023/02/09 01:01:38;;;;;;;15.50;9.70;;;2.00;99.90;;;;;;4973945;28;20522;-71
2023/02/09 01:04:04;;;;;;;11.40;8.33;;;2.10;99.90;;;;;;4973929;28;20435;-71
2023/02/09 01:06:30;;;;;;;14.47;8.93;;;2.20;99.10;;;;;;4973404;28;20435;-71
2023/02/09 01:08:55;;;;;;;16.67;10.23;;;2.40;98.30;;;;;;4973936;28;20461;-71
2023/02/09 01:11:25;;;;;;;16.87;7.93;;;2.50;96.60;;;;;;4973468;28;20185;-71
2023/02/09 01:13:51;;;;;;;14.03;7.90;;;2.50;96.40;;;;;;4973767;28;20200;-72
2023/02/09 01:16:17;;;;;;;15.03;8.80;;;2.60;96.20;;;;;;4973493;28;21051;-70
2023/02/09 01:18:43;;;;;;;11.53;8.90;;;2.60;95.90;;;;;;4973733;28;20216;-69
2023/02/09 01:21:17;;;;;;;13.03;7.93;;;2.60;95.70;;;;;;4973732;28;20442;-71
2023/02/09 01:23:44;;;;;;;15.20;8.00;;;2.70;95.20;;;;;;4973336;28;20181;-70
2023/02/09 01:26:11;;;;;;;15.37;9.30;;;2.70;94.80;;;;;;4973581;28;20439;-70
2023/02/09 01:28:37;;;;;;;13.23;8.50;;;2.80;94.50;;;;;;4973493;28;20441;-70
2023/02/09 01:31:18;;;;;;;12.73;8.77;;;2.80;94.20;;;;;;4973283;28;20563;-70
2023/02/09 01:33:43;;;;;;;15.10;9.60;;;2.80;93.80;;;;;;4973270;28;20448;-70
2023/02/09 01:36:09;;;;;;;18.80;9.53;;;2.80;93.40;;;;;;4973308;28;20461;-71
2023/02/09 01:38:35;;;;;;;12.67;9.20;;;2.80;93.60;;;;;;4972398;28;20196;-70
2023/02/09 01:41:00;;;;;;;16.00;9.20;;;2.90;93.00;;;;;;4974474;28;20189;-70
2023/02/09 01:43:26;;;;;;;14.03;8.07;;;2.80;92.80;;;;;;4976616;28;20193;-71
2023/02/09 01:45:56;;;;;;;14.83;9.73;;;2.80;93.30;;;;;;4976813;28;20262;-71
2023/02/09 01:48:28;;;;;;;18.50;9.70;;;2.80;93.20;;;;;;4976711;28;20191;-71
2023/02/09 01:50:58;;;;;;;11.97;7.63;;;2.90;93.20;;;;;;4974628;28;20437;-71
2023/02/09 01:53:26;;;;;;;11.87;7.63;;;2.80;93.20;;;;;;4976779;28;20469;-71
2023/02/09 01:56:02;;;;;;;17.37;8.57;;;2.70;93.40;;;;;;4976574;28;20537;-71
2023/02/09 01:58:28;;;;;;;18.73;10.10;;;2.90;93.10;;;;;;4976273;28;20495;-71
2023/02/09 02:00:53;;;;;;;15.13;8.57;;;2.90;93.20;;;;;;4974571;28;20429;-71
2023/02/09 02:03:23;;;;;;;17.40;10.00;;;2.90;93.00;;;;;;4976348;28;20437;-71
2023/02/09 02:05:54;;;;;;;13.80;8.83;;;3.00;92.60;;;;;;4976357;28;20708;-70
2023/02/09 02:08:32;;;;;;;15.67;9.00;;;3.00;92.80;;;;;;4976425;28;20488;-70
2023/02/09 02:10:57;;;;;;;19.53;10.33;;;3.00;92.50;;;;;;4976061;28;20472;-70
2023/02/09 02:13:23;;;;;;;16.87;9.20;;;3.00;92.50;;;;;;4976323;28;20947;-70
2023/02/09 02:16:13;;;;;;;13.63;9.30;;;3.00;92.60;;;;;;4976480;28;20200;-69
2023/02/09 02:19:28;;;;;;;13.77;8.47;;;3.00;92.50;;;;;;4975279;28;20224;-69
2023/02/09 02:22:05;;;;;;;18.70;9.03;;;3.10;92.40;;;;;;4942453;28;20451;-69
2023/02/09 02:25:05;;;;;;;15.27;8.77;;;3.10;92.70;;;;;;4976195;28;20433;-69
2023/02/09 02:27:49;;;;;;;15.90;9.50;;;3.00;92.60;;;;;;4948095;28;20943;-68
2023/02/09 02:30:33;;;;;;;16.17;9.37;;;3.00;92.40;;;;;;4958677;28;20489;-69
2023/02/09 02:33:16;;;;;;;18.63;9.07;;;3.00;92.30;;;;;;4971781;28;20471;-69
2023/02/09 02:36:09;;;;;;;17.77;9.40;;;3.00;92.60;;;;;;4969496;28;20460;-69
2023/02/09 02:39:04;;;;;;;16.50;10.17;;;3.10;92.40;;;;;;4967308;28;20448;-69
2023/02/09 02:44:28;;;;;;;20.10;9.00;;;3.10;92.20;;;;;;4963555;28;20467;-69
2023/02/09 02:46:59;;;;;;;14.33;10.23;;;3.10;92.10;;;;;;4969523;28;20996;-70
2023/02/09 02:49:28;;;;;;;17.53;9.80;;;3.10;92.00;;;;;;4956047;28;20429;-69
2023/02/09 02:51:58;;;;;;;15.93;8.80;;;3.00;92.30;;;;;;4958007;28;20448;-71
2023/02/09 02:54:29;;;;;;;17.13;9.53;;;3.00;92.40;;;;;;4956672;28;20441;-69
2023/02/09 02:57:03;;;;;;;23.23;10.00;;;3.00;92.50;;;;;;4958134;28;20906;-70
2023/02/09 02:59:36;;;;;;;17.93;9.83;;;3.00;92.10;;;;;;4957344;28;20430;-70
2023/02/09 03:02:14;;;;;;;13.70;8.83;;;3.00;92.20;;;;;;4961787;28;20434;-72
2023/02/09 03:04:41;;;;;;;14.70;9.37;;;3.10;92.10;;;;;;4966892;28;20588;-71
2023/02/09 03:07:07;;;;;;;16.53;9.73;;;3.00;92.10;;;;;;4966021;28;20462;-70
2023/02/09 03:09:33;;;;;;;17.00;9.80;;;3.00;92.10;;;;;;4964637;28;20431;-70
2023/02/09 03:12:16;;;;;;;15.60;10.20;;;3.10;92.20;;;;;;4955924;28;20452;-69
2023/02/09 03:14:49;;;;;;;17.33;11.00;;;3.10;92.20;;;;;;4958730;28;20294;-69
2023/02/09 03:17:49;;;;;;;15.80;9.10;;;3.00;92.20;;;;;;4958803;28;20516;-68
2023/02/09 03:20:45;;;;;;;15.70;9.20;;;3.00;92.30;;;;;;4956643;28;20433;-70
2023/02/09 03:23:20;;;;;;;18.17;10.50;;;2.90;92.40;;;;;;4973635;28;20431;-69
2023/02/09 03:25:48;;;;;;;15.27;9.53;;;2.90;92.60;;;;;;4956570;28;20457;-70
2023/02/09 03:28:19;;;;;;;15.17;9.27;;;2.90;92.70;;;;;;4960343;28;20534;-70
2023/02/09 03:30:48;;;;;;;17.57;9.63;;;2.90;92.80;;;;;;4962955;28;20500;-70
2023/02/09 03:33:23;;;;;;;18.53;9.20;;;2.80;92.70;;;;;;4973926;28;20472;-71
2023/02/09 03:35:53;;;;;;;17.27;9.73;;;2.80;93.00;;;;;;4955605;28;20968;-72
2023/02/09 03:38:19;;;;;;;17.37;10.00;;;2.80;93.00;;;;;;4974729;28;20429;-70
2023/02/09 05:31:10;;;;;;;16.30;9.30;;;2.60;92.50;;;;;;5706999;23;20520;-78
2023/02/09 05:33:35;;;;;;;18.17;10.87;;;2.50;92.80;;;;;;5059389;28;20481;-79
2023/02/09 05:36:07;;;;;;;20.87;11.20;;;2.50;93.00;;;;;;5039349;28;20208;-78
2023/02/09 05:38:32;;;;;;;17.33;10.60;;;2.50;92.90;;;;;;5069558;28;20179;-83
2023/02/09 05:41:03;;;;;;;19.17;10.43;;;2.40;93.20;;;;;;5073934;28;20427;-86
2023/02/09 05:43:28;;;;;;;21.37;11.17;;;2.40;93.70;;;;;;5069997;28;20195;-77
2023/02/09 05:45:54;;;;;;;15.87;10.73;;;2.40;94.00;;;;;;5050878;28;20655;-75
2023/02/09 05:48:19;;;;;;;15.57;9.30;;;2.40;94.10;;;;;;5067284;28;20204;-82
2023/02/09 05:50:46;;;;;;;18.97;10.30;;;2.40;94.20;;;;;;5065346;28;20252;-73
2023/02/09 05:53:12;;;;;;;23.73;13.60;;;2.40;94.00;;;;;;5047814;28;20219;-85
2023/02/09 05:55:37;;;;;;;14.83;9.83;;;2.40;94.00;;;;;;5035967;28;20549;-85
2023/02/09 05:58:03;;;;;;;27.10;12.93;;;2.40;94.00;;;;;;5034883;28;20224;-85
2023/02/09 06:00:29;;;;;;;16.73;11.37;;;2.40;94.10;;;;;;5033074;28;20204;-74
2023/02/09 06:02:55;;;;;;;22.33;11.60;;;2.50;93.60;;;;;;5033233;28;20197;-75
2023/02/09 06:05:21;;;;;;;21.87;12.20;;;2.50;93.70;;;;;;5034279;28;20195;-74
2023/02/09 06:07:47;;;;;;;19.37;11.20;;;2.40;93.60;;;;;;5045932;28;20437;-74
2023/02/09 06:10:13;;;;;;;16.30;10.47;;;2.40;93.90;;;;;;5060170;28;20449;-74
2023/02/09 06:12:38;;;;;;;23.33;11.60;;;2.30;94.00;;;;;;5057745;28;20426;-75
2023/02/09 06:15:04;;;;;;;17.90;11.37;;;2.30;94.00;;;;;;5055097;28;20182;-75
2023/02/09 06:17:30;;;;;;;22.80;12.70;;;2.30;94.00;;;;;;5058708;28;20226;-75
2023/02/09 06:19:55;;;;;;;17.60;10.80;;;2.40;93.90;;;;;;5061738;28;20429;-75
2023/02/09 06:22:21;;;;;;;18.20;10.37;;;2.40;93.50;;;;;;5059211;28;20547;-75
2023/02/09 06:24:46;;;;;;;20.07;11.00;;;2.50;93.60;;;;;;5058487;28;20194;-76
2023/02/09 06:27:12;;;;;;;19.93;11.90;;;2.40;93.50;;;;;;5065131;28;20632;-77
2023/02/09 06:29:38;;;;;;;19.63;11.13;;;2.30;93.50;;;;;;5065779;28;20236;-76
2023/02/09 06:32:04;;;;;;;26.70;11.47;;;2.30;94.00;;;;;;5064109;28;20427;-78
2023/02/09 06:34:29;;;;;;;17.87;13.00;;;2.30;94.10;;;;;;5054590;28;20524;-81
2023/02/09 06:36:55;;;;;;;20.27;11.40;;;2.30;94.10;;;;;;5058899;28;20223;-78
2023/02/09 06:39:20;;;;;;;21.50;12.13;;;2.20;94.20;;;;;;5061545;28;20208;-78
2023/02/09 06:41:46;;;;;;;29.30;13.30;;;2.30;94.50;;;;;;5060348;28;20748;-78
2023/02/09 06:44:12;;;;;;;24.00;12.80;;;2.30;94.90;;;;;;5061968;28;20634;-77
2023/02/09 06:46:38;;;;;;;18.87;11.67;;;2.30;95.30;;;;;;5061605;28;20180;-78
2023/02/09 06:49:03;;;;;;;20.17;12.30;;;2.40;95.10;;;;;;5058812;28;20308;-78
2023/02/09 06:51:29;;;;;;;18.47;11.63;;;2.40;95.10;;;;;;5058238;28;20186;-75
2023/02/09 06:53:55;;;;;;;23.43;12.00;;;2.40;94.90;;;;;;5052711;28;20446;-76
2023/02/09 06:56:21;;;;;;;18.13;10.33;;;2.40;94.80;;;;;;5063720;28;20490;-77
2023/02/09 06:58:46;;;;;;;22.13;12.70;;;2.40;95.30;;;;;;5066437;28;20657;-75
2023/02/09 07:01:16;;;;;;;20.10;10.60;;;2.40;95.50;;;;;;5054158;28;20189;-76
2023/02/09 07:03:43;;;;;;;24.20;13.40;;;2.40;95.50;;;;;;5054636;28;20178;-76
2023/02/09 07:06:14;;;;;;;21.00;11.90;;;2.40;96.10;;;;;;5053084;28;20463;-76
2023/02/09 07:08:40;;;;;;;16.97;11.90;;;2.40;95.60;;;;;;5052841;28;20442;-76
2023/02/09 07:11:09;;;;;;;16.97;10.93;;;2.50;95.10;;;;;;5052740;28;20440;-76
2023/02/09 07:13:34;;;;;;;15.43;10.27;;;2.40;95.10;;;;;;5052627;28;20451;-75
2023/02/09 07:16:02;;;;;;;21.40;11.70;;;2.40;95.30;;;;;;5050575;28;20924;-75
2023/02/09 07:18:29;;;;;;;20.77;11.40;;;2.50;95.10;;;;;;5052881;28;20248;-76
2023/02/09 07:20:56;;;;;;;21.07;11.90;;;2.50;94.80;;;;;;5057588;28;20435;-76
2023/02/09 07:23:23;;;;;;;20.00;12.07;;;2.60;94.30;;;;;;5053733;28;20924;-76
2023/02/09 07:25:49;;;;;;;27.70;13.23;;;2.70;94.50;;;;;;5057277;28;20443;-76
2023/02/09 07:28:14;;;;;;;24.10;12.40;;;2.80;93.40;;;;;;5060644;28;20433;-75
2023/02/09 07:30:40;;;;;;;18.77;11.30;;;2.70;93.50;;;;;;5054981;28;20234;-76
2023/02/09 07:33:07;;;;;;;21.70;11.50;;;2.70;93.40;;;;;;5056667;28;20551;-76
2023/02/09 07:35:32;;;;;;;20.67;12.20;;;2.70;93.60;;;;;;5055453;28;20440;-77
2023/02/09 07:37:58;;;;;;;22.60;11.60;;;2.70;93.60;;;;;;5059877;28;20490;-76
2023/02/09 07:40:24;;;;;;;24.47;12.67;;;2.70;93.60;;;;;;5054594;28;20180;-77
2023/02/09 07:42:52;;;;;;;20.07;12.40;;;2.70;93.60;;;;;;5057325;28;20194;-77
2023/02/09 07:45:18;;;;;;;24.10;14.20;;;2.60;93.80;;;;;;5056804;28;20186;-78
2023/02/09 07:47:43;;;;;;;22.20;12.43;;;2.60;94.20;;;;;;5055592;28;20942;-78
2023/02/09 07:50:09;;;;;;;20.33;12.20;;;2.80;94.20;;;;;;5054845;28;20210;-78
2023/02/09 07:52:34;;;;;;;23.67;12.27;;;3.00;93.90;;;;;;5036052;28;20189;-78
2023/02/09 07:55:00;;;;;;;25.80;13.23;;;3.00;93.70;;;;;;5052091;28;20191;-77
2023/02/09 07:57:28;;;;;;;19.70;14.10;;;3.20;93.70;;;;;;5051041;28;20214;-85
2023/02/09 07:59:54;;;;;;;20.83;12.93;;;3.20;93.40;;;;;;5052887;28;20204;-80
2023/02/09 08:02:32;;;;;;;18.73;11.67;;;3.40;92.80;;;;;;5050913;28;20544;-81
2023/02/09 08:04:59;;;;;;;22.80;12.33;;;3.60;92.20;;;;;;5050978;28;20232;-80
2023/02/09 08:07:26;;;;;;;26.57;14.93;;;3.70;92.10;;;;;;5052830;28;20439;-82
2023/02/09 08:09:52;;;;;;;22.37;13.40;;;3.90;91.60;;;;;;5056432;28;20786;-81
2023/02/09 08:12:19;;;;;;;27.80;12.53;;;4.10;91.30;;;;;;5041761;28;20451;-84
2023/02/09 08:14:47;;;;;;;19.13;11.70;;;4.30;90.70;;;;;;5062069;28;20212;-82
2023/02/09 08:17:19;;;;;;;19.97;13.03;;;4.40;89.90;;;;;;5058563;28;20497;-83
2023/02/09 08:20:00;;;;;;;20.23;11.40;;;4.40;90.50;;;;;;5061741;28;20439;-82
2023/02/09 08:22:30;;;;;;;19.93;11.43;;;4.40;90.30;;;;;;5063148;28;20424;-79
2023/02/09 08:24:57;;;;;;;25.33;11.97;;;4.60;89.30;;;;;;5056444;28;21240;-83
2023/02/09 08:27:23;;;;;;;23.77;13.27;;;4.70;86.00;;;;;;5054663;28;20429;-80
2023/02/09 08:29:49;;;;;;;15.77;11.87;;;4.80;86.60;;;;;;5060866;28;20426;-80
2023/02/09 08:32:14;;;;;;;22.77;12.87;;;4.80;86.40;;;;;;5058801;28;20276;-81
2023/02/09 08:34:40;;;;;;;23.43;13.90;;;4.80;84.30;;;;;;5059894;28;20212;-81
2023/02/09 08:37:05;;;;;;;19.60;12.63;;;4.80;83.80;;;;;;5059095;28;20270;-82
2023/02/09 08:39:31;;;;;;;23.77;13.03;;;4.70;83.50;;;;;;5058986;28;20233;-81
2023/02/09 08:41:56;;;;;;;18.40;12.10;;;4.70;84.80;;;;;;5053966;28;20545;-80
2023/02/09 08:44:22;;;;;;;18.50;12.07;;;4.70;84.50;;;;;;5045849;28;20585;-80
2023/02/09 08:46:47;;;;;;;21.50;14.37;;;4.70;85.40;;;;;;5056898;28;20209;-81
2023/02/09 08:49:13;;;;;;;24.13;13.93;;;4.80;87.00;;;;;;5068393;28;20190;-81
2023/02/09 08:51:38;;;;;;;25.33;12.60;;;4.90;86.60;;;;;;5071806;28;20725;-81
2023/02/09 08:54:04;;;;;;;23.50;12.10;;;5.00;84.80;;;;;;5057825;28;20194;-81
2023/02/09 08:56:30;;;;;;;20.43;12.80;;;5.10;83.70;;;;;;5063225;28;20209;-81
2023/02/09 08:58:55;;;;;;;17.93;13.00;;;5.10;83.40;;;;;;5063452;28;20194;-81
2023/02/09 09:01:20;;;;;;;22.47;12.67;;;5.20;83.30;;;;;;5065167;28;20905;-81
2023/02/09 09:03:46;;;;;;;19.80;12.37;;;5.20;84.40;;;;;;5062132;28;20194;-81
2023/02/09 09:06:12;;;;;;;21.77;13.10;;;5.20;82.70;;;;;;5064727;28;20178;-80
2023/02/09 09:08:39;;;;;;;17.97;13.50;;;5.30;83.20;;;;;;5067352;28;20259;-82
2023/02/09 09:11:06;;;;;;;19.23;12.70;;;5.40;82.20;;;;;;5045182;28;20273;-82
2023/02/09 09:13:32;;;;;;;19.47;12.73;;;5.50;81.70;;;;;;5064205;28;20445;-82
2023/02/09 09:15:58;;;;;;;18.37;11.23;;;5.50;81.40;;;;;;5066991;28;20509;-81
2023/02/09 09:18:24;;;;;;;19.53;11.33;;;5.40;79.80;;;;;;5065589;28;20432;-81
2023/02/09 09:20:50;;;;;;;22.10;12.20;;;5.50;78.70;;;;;;5068359;28;20183;-81
2023/02/09 09:23:16;;;;;;;26.80;13.43;;;5.60;77.70;;;;;;5061145;28;20427;-79
2023/02/09 09:25:42;;;;;;;18.07;12.00;;;5.60;76.40;;;;;;5063428;28;20444;-79
2023/02/09 09:28:08;;;;;;;21.77;13.30;;;5.60;77.70;;;;;;5061785;28;20666;-79
2023/02/09 09:30:34;;;;;;;24.27;12.40;;;5.70;76.30;;;;;;5061373;28;20277;-83
2023/02/09 09:33:00;;;;;;;20.80;12.33;;;5.70;76.10;;;;;;5063040;28;20432;-78
2023/02/09 09:35:26;;;;;;;21.27;13.40;;;5.70;75.70;;;;;;5066129;28;20464;-81
2023/02/09 09:37:54;;;;;;;18.73;10.80;;;5.80;76.10;;;;;;5066630;28;20217;-79
2023/02/09 09:40:23;;;;;;;18.53;12.70;;;5.80;76.10;;;;;;5058768;28;20437;-80
2023/02/09 09:43:02;;;;;;;19.63;12.50;;;5.80;75.20;;;;;;5065884;28;20574;-79
2023/02/09 09:45:31;;;;;;;17.60;11.30;;;5.90;74.50;;;;;;5050054;28;20466;-79
2023/02/09 09:47:57;;;;;;;24.87;13.20;;;6.00;73.00;;;;;;5062201;28;20437;-78
2023/02/09 09:50:35;;;;;;;20.10;12.20;;;5.80;72.40;;;;;;5058729;28;20441;-77
2023/02/09 09:53:02;;;;;;;19.25;11.35;;;5.80;72.90;;;;;;5059728;28;20505;-82
2023/02/09 09:55:30;;;;;;;20.33;12.00;;;6.50;99.90;;;;;;5063033;28;20194;-80
2023/02/09 09:58:00;;;;;;;19.37;12.17;;;6.20;91.10;;;;;;5059407;28;20994;-80
2023/02/09 10:00:38;;;;;;;20.17;12.13;;;6.00;83.90;;;;;;5068958;28;20426;-82
2023/02/09 10:03:16;;;;;;;21.20;13.20;;;6.00;80.50;;;;;;5057103;28;20529;-80
2023/02/09 10:05:42;;;;;;;23.27;11.40;;;6.10;77.90;;;;;;5054754;28;20826;-80
2023/02/09 10:08:22;;;;;;;21.40;11.23;;;6.10;77.80;;;;;;5054541;28;20483;-80
2023/02/09 10:11:08;;;;;;;19.63;11.40;;;6.00;77.10;;;;;;5063065;28;20444;-80
2023/02/09 10:13:50;;;;;;;19.03;11.40;;;6.10;75.40;;;;;;5061426;28;20432;-81
2023/02/09 10:16:16;;;;;;;18.30;11.23;;;6.00;74.40;;;;;;5064827;28;20549;-79
2023/02/09 10:18:43;;;;;;;19.80;11.57;;;6.00;74.40;;;;;;5061866;28;20457;-79
2023/02/09 10:21:13;;;;;;;19.50;11.43;;;6.00;74.30;;;;;;5058859;28;20178;-80
2023/02/09 10:24:09;;;;;;;15.83;10.57;;;6.00;74.00;;;;;;5059930;28;20824;-80
2023/02/09 10:26:36;;;;;;;18.53;10.70;;;5.90;74.60;;;;;;5054647;28;20453;-79
2023/02/09 10:29:10;;;;;;;25.53;11.70;;;5.90;74.10;;;;;;5061345;28;20429;-79
2023/02/09 10:32:02;;;;;;;20.67;10.90;;;5.90;73.40;;;;;;5064534;28;20555;-79
2023/02/09 10:34:36;;;;;;;15.67;10.20;;;5.90;72.10;;;;;;5017702;28;20526;-81
2023/02/09 10:37:19;;;;;;;15.57;9.93;;;5.80;73.10;;;;;;5056552;28;20915;-81
2023/02/09 10:40:07;;;;;;;17.00;10.40;;;5.60;73.10;;;;;;5062334;28;20512;-81
2023/02/09 10:42:36;;;;;;;19.90;9.93;;;5.60;73.90;;;;;;5054877;28;20456;-81
2023/02/09 10:45:23;;;;;;;20.23;11.63;;;5.70;74.00;;;;;;5057555;28;20425;-80
2023/02/09 10:47:58;;;;;;;18.40;10.40;;;5.90;74.20;;;;;;5057904;28;20432;-80
2023/02/09 10:50:23;;;;;;;16.87;11.30;;;6.10;72.60;;;;;;5051588;28;20842;-79
2023/02/09 10:53:01;;;;;;;19.23;11.93;;;6.20;74.30;;;;;;5060148;28;20425;-79
2023/02/09 10:55:40;;;;;;;16.67;10.13;;;6.30;71.60;;;;;;5061204;28;20561;-79
2023/02/09 10:58:25;;;;;;;19.10;10.80;;;6.40;70.00;;;;;;5062241;28;20464;-79
2023/02/09 11:01:08;;;;;;;15.67;10.70;;;6.30;70.60;;;;;;5041314;28;20559;-80
2023/02/09 11:03:36;;;;;;;16.03;10.03;;;6.30;69.30;;;;;;5058680;28;20446;-80
2023/02/09 11:06:26;;;;;;;17.23;11.03;;;6.30;69.30;;;;;;5057794;28;20520;-80
2023/02/09 11:09:01;;;;;;;17.17;10.43;;;6.40;69.70;;;;;;5058472;28;20438;-80
2023/02/09 11:11:34;;;;;;;17.63;10.97;;;6.30;69.30;;;;;;5053231;28;20425;-80
2023/02/09 11:14:00;;;;;;;21.20;11.70;;;6.40;68.90;;;;;;5057236;28;20441;-80
2023/02/09 11:16:50;;;;;;;22.03;12.53;;;6.40;67.40;;;;;;5031142;28;20727;-80
2023/02/09 11:19:21;;;;;;;15.83;10.53;;;6.40;67.80;;;;;;5057782;28;20426;-80
2023/02/09 11:21:59;;;;;;;26.47;10.90;;;6.50;67.00;;;;;;5062598;28;20436;-80
2023/02/09 11:24:43;;;;;;;20.97;10.97;;;6.60;68.90;;;;;;5054101;28;20516;-80
2023/02/09 11:27:36;;;;;;;18.77;11.37;;;6.70;68.10;;;;;;5055863;28;20463;-80
2023/02/09 11:30:17;;;;;;;17.63;11.07;;;6.70;66.40;;;;;;5061518;28;20507;-80
2023/02/09 11:33:15;;;;;;;14.57;10.47;;;6.60;65.90;;;;;;5057513;28;20537;-82
2023/02/09 11:35:58;;;;;;;18.17;11.00;;;6.70;64.60;;;;;;5020819;28;20441;-81
2023/02/09 11:38:46;;;;;;;16.37;9.60;;;6.80;65.00;;;;;;5054775;28;20448;-81
2023/02/09 11:44:05;;;;;;;18.07;9.37;;;7.10;64.90;;;;;;5052789;28;20461;-81
2023/02/09 11:46:32;;;;;;;16.83;10.00;;;7.20;62.90;;;;;;5055533;28;20951;-80
2023/02/09 11:49:05;;;;;;;16.03;10.20;;;7.10;61.70;;;;;;5050347;28;20442;-80
2023/02/09 11:51:35;;;;;;;17.50;11.40;;;7.30;62.60;;;;;;5056264;28;20449;-81
2023/02/09 11:54:15;;;;;;;14.60;9.83;;;7.40;61.10;;;;;;5063382;28;20563;-80
2023/02/09 11:56:44;;;;;;;24.03;10.60;;;7.60;61.10;;;;;;5055262;28;20469;-80
2023/02/09 11:59:31;;;;;;;18.33;11.37;;;7.60;59.20;;;;;;5056223;28;20503;-80
2023/02/09 12:02:15;;;;;;;16.70;11.63;;;7.50;59.70;;;;;;5051101;28;20493;-73
2023/02/09 12:04:53;;;;;;;14.50;8.90;;;7.60;59.10;;;;;;5050059;28;20441;-73
2023/02/09 12:07:35;;;;;;;14.13;9.60;;;7.90;59.50;;;;;;5046794;28;20472;-74
2023/02/09 12:10:32;;;;;;;17.30;9.90;;;8.00;58.30;;;;;;5059534;28;20459;-74
2023/02/09 12:13:21;;;;;;;15.27;9.20;;;8.00;57.90;;;;;;5050374;28;20432;-73
2023/02/09 12:15:51;;;;;;;12.53;8.83;;;8.10;57.50;;;;;;5049609;28;20425;-74
2023/02/09 12:18:23;;;;;;;16.93;10.00;;;8.20;56.60;;;;;;5053225;28;20485;-75
2023/02/09 12:20:50;;;;;;;13.93;9.40;;;8.20;56.50;;;;;;5053457;28;20472;-76
2023/02/09 12:23:24;;;;;;;16.43;9.50;;;8.40;56.40;;;;;;5059224;28;20799;-76
2023/02/09 12:25:58;;;;;;;23.10;10.53;;;8.20;55.70;;;;;;5059570;28;20437;-76
2023/02/09 12:28:26;;;;;;;12.83;9.80;;;8.30;56.40;;;;;;5065748;28;20838;-75
2023/02/09 12:30:52;;;;;;;18.13;9.77;;;8.40;56.30;;;;;;5058812;28;20810;-76
2023/02/09 12:33:23;;;;;;;17.17;10.50;;;8.40;56.30;;;;;;5057838;28;20448;-76
2023/02/09 12:36:27;;;;;;;12.97;10.47;;;8.60;56.10;;;;;;5059317;28;20545;-75
2023/02/09 12:38:54;;;;;;;17.20;9.33;;;8.70;55.60;;;;;;5058674;28;20429;-74
2023/02/09 12:41:27;;;;;;;13.43;9.20;;;8.70;54.30;;;;;;5045273;28;20441;-84
2023/02/09 12:44:10;;;;;;;16.73;10.17;;;8.70;53.50;;;;;;5057414;28;20434;-81
2023/02/09 12:46:53;;;;;;;13.73;9.23;;;8.40;54.10;;;;;;5056975;28;20429;-82
2023/02/09 12:49:26;;;;;;;14.40;9.20;;;8.40;54.70;;;;;;5054512;28;20443;-83
2023/02/09 12:51:52;;;;;;;16.00;10.00;;;8.40;55.10;;;;;;5060343;28;20423;-83
2023/02/09 12:54:41;;;;;;;17.40;10.30;;;8.50;55.20;;;;;;5065104;28;20520;-80
2023/02/09 12:57:16;;;;;;;17.07;10.00;;;8.60;55.30;;;;;;5057658;28;20301;-80
2023/02/09 12:59:58;;;;;;;16.00;10.60;;;8.60;54.70;;;;;;5060104;28;20992;-80
2023/02/09 13:02:41;;;;;;;13.47;8.60;;;8.60;54.70;;;;;;5060475;28;20939;-80
2023/02/09 13:05:20;;;;;;;14.93;9.47;;;8.60;54.10;;;;;;5057330;28;20433;-80
2023/02/09 13:08:20;;;;;;;15.70;10.10;;;8.50;54.30;;;;;;5058409;28;20520;-80
2023/02/09 13:10:46;;;;;;;18.27;10.63;;;8.50;55.20;;;;;;5056281;28;20482;-80
2023/02/09 13:13:11;;;;;;;16.40;9.87;;;8.50;55.60;;;;;;5062584;28;20523;-81
2023/02/09 13:15:59;;;;;;;14.97;9.33;;;8.60;56.40;;;;;;5060797;28;20178;-80
2023/02/09 13:18:46;;;;;;;15.50;10.00;;;8.70;56.40;;;;;;5060624;28;20571;-80
2023/02/09 13:21:49;;;;;;;17.93;11.87;;;8.80;56.80;;;;;;5059364;28;20440;-80
2023/02/09 13:24:18;;;;;;;18.17;11.53;;;8.90;55.00;;;;;;5053801;28;20920;-79
2023/02/09 13:26:54;;;;;;;15.83;10.47;;;8.70;54.90;;;;;;5041048;28;20524;-81
2023/02/09 13:29:22;;;;;;;15.10;11.83;;;8.80;55.10;;;;;;5058859;28;20963;-79
2023/02/09 13:32:13;;;;;;;14.47;10.80;;;8.90;54.90;;;;;;5039204;28;20533;-81
2023/02/09 13:35:03;;;;;;;20.23;11.80;;;9.00;55.00;;;;;;5060785;28;20413;-82
2023/02/09 13:37:52;;;;;;;24.80;13.32;;;8.90;55.00;;;;;;5059952;28;20441;-84
2023/02/09 13:40:29;;;;;;;31.40;13.67;;;9.10;55.30;;;;;;5043263;28;20202;-83
2023/02/09 13:43:09;;;;;;;16.23;10.97;;;9.20;54.60;;;;;;5060840;28;20551;-78
2023/02/09 13:45:44;;;;;;;17.80;11.30;;;9.10;54.90;;;;;;5058555;28;20822;-77
2023/02/09 13:48:27;;;;;;;17.63;11.10;;;9.00;54.50;;;;;;5061896;28;20483;-79
2023/02/09 13:50:55;;;;;;;19.13;11.20;;;9.00;55.20;;;;;;5062106;28;20456;-78
2023/02/09 13:53:23;;;;;;;18.90;12.27;;;8.70;56.10;;;;;;5070007;28;20420;-79
2023/02/09 13:55:49;;;;;;;16.13;11.07;;;8.80;55.80;;;;;;5059876;28;20487;-79
2023/02/09 13:58:24;;;;;;;20.10;11.80;;;8.70;55.60;;;;;;5060136;28;20562;-79
2023/02/09 14:00:59;;;;;;;20.20;12.60;;;8.80;55.80;;;;;;5060406;28;20940;-78
2023/02/09 14:03:31;;;;;;;19.20;12.27;;;8.80;56.40;;;;;;5059711;28;20439;-79
2023/02/09 14:06:10;;;;;;;19.80;12.77;;;8.90;56.10;;;;;;5054558;28;20428;-78
2023/02/09 14:08:39;;;;;;;16.63;11.90;;;8.80;58.00;;;;;;5053549;28;20436;-79
2023/02/09 14:11:16;;;;;;;21.67;12.77;;;8.80;57.50;;;;;;5062765;28;20490;-79
2023/02/09 14:13:47;;;;;;;18.33;11.83;;;8.70;57.30;;;;;;5064670;28;20433;-78
2023/02/09 14:16:17;;;;;;;18.70;11.03;;;8.80;57.30;;;;;;5053105;28;20759;-76
2023/02/09 14:18:51;;;;;;;19.50;9.70;;;8.70;57.50;;;;;;5061872;28;20448;-76
2023/02/09 14:21:23;;;;;;;17.43;9.20;;;8.80;57.70;;;;;;5054598;28;20489;-78
2023/02/09 14:24:24;;;;;;;16.60;9.90;;;8.60;55.80;;;;;;5030578;28;20514;-77
2023/02/09 14:27:04;;;;;;;13.83;9.13;;;8.70;55.30;;;;;;5045640;28;20492;-78
2023/02/09 14:29:33;;;;;;;14.50;9.33;;;8.80;54.90;;;;;;5045103;28;20430;-76
2023/02/09 14:32:30;;;;;;;16.00;10.00;;;8.80;55.00;;;;;;5032726;28;20465;-78
2023/02/09 14:34:56;;;;;;;19.60;10.67;;;8.70;56.50;;;;;;5043988;28;20974;-75
2023/02/09 14:37:21;;;;;;;16.47;10.37;;;8.70;56.20;;;;;;5043625;28;20465;-75
2023/02/09 14:40:20;;;;;;;13.63;9.20;;;8.80;55.40;;;;;;5040289;28;20957;-75
2023/02/09 14:43:23;;;;;;;13.50;8.80;;;8.70;54.40;;;;;;5037532;28;20188;-75
2023/02/09 14:45:58;;;;;;;12.67;9.93;;;8.60;55.00;;;;;;4947435;28;20446;-76
2023/02/09 14:48:27;;;;;;;17.83;9.70;;;8.60;54.80;;;;;;5033699;28;20528;-79
2023/02/09 14:50:54;;;;;;;17.93;10.40;;;8.60;56.30;;;;;;5047762;28;20464;-79
2023/02/09 14:53:22;;;;;;;15.37;9.90;;;8.50;55.60;;;;;;5041568;28;20797;-79
2023/02/09 14:55:47;;;;;;;14.03;8.93;;;8.50;54.80;;;;;;5047623;28;20446;-78
2023/02/09 14:58:30;;;;;;;14.80;10.80;;;8.50;55.60;;;;;;5046758;28;20470;-81
2023/02/09 15:00:58;;;;;;;13.30;9.70;;;8.40;55.00;;;;;;5050144;28;20187;-80
2023/02/09 15:03:24;;;;;;;16.80;9.77;;;8.40;56.10;;;;;;5050024;28;20429;-79